createdAt,value
2023-02-17T00:03:22.870Z,5.15
2023-02-17T00:08:19.085Z,4.89
2023-02-17T00:13:15.362Z,4.74
2023-02-17T00:18:11.582Z,4.6
2023-02-17T00:23:07.842Z,4.44
2023-02-17T00:28:04.069Z,4.56
2023-02-17T00:33:00.344Z,4.76
2023-02-17T00:37:56.621Z,4.9
2023-02-17T00:42:52.893Z,5.55
2023-02-17T00:47:49.110Z,4.88
2023-02-17T00:52:45.411Z,5.01
2023-02-17T00:57:41.665Z,4.44
2023-02-17T01:02:37.888Z,4.53
2023-02-17T01:07:34.220Z,4.34
2023-02-17T01:12:30.470Z,5.39
2023-02-17T01:17:26.745Z,5.02
2023-02-17T01:22:22.958Z,3.82
2023-02-17T01:27:19.221Z,3.85
2023-02-17T01:32:15.481Z,5.04
2023-02-17T01:37:11.757Z,5.08
2023-02-17T01:42:11.990Z,4.65
2023-02-17T01:47:12.281Z,3.6
2023-02-17T01:52:11.470Z,3
2023-02-17T01:57:09.716Z,3.5
2023-02-17T02:02:06.119Z,5.18
2023-02-17T02:07:03.245Z,5.83
2023-02-17T02:11:59.475Z,5.54
2023-02-17T02:17:02.767Z,4.33
2023-02-17T02:22:17.927Z,4.03
2023-02-17T02:27:31.154Z,3.96
2023-02-17T02:32:39.413Z,3.62
2023-02-17T02:37:41.661Z,3.58
2023-02-17T02:42:39.955Z,3.47
2023-02-17T02:47:42.155Z,2.74
2023-02-17T02:52:48.367Z,2.8
2023-02-17T02:57:54.644Z,3.14
2023-02-17T03:02:57.863Z,3.26
2023-02-17T03:07:58.094Z,2.81
2023-02-17T03:12:55.352Z,2.32
2023-02-17T03:17:51.653Z,2.33
2023-02-17T03:22:50.862Z,2.73
2023-02-17T03:27:47.136Z,3.87
2023-02-17T03:32:43.362Z,4.15
2023-02-17T03:37:39.672Z,3.95
2023-02-17T03:42:35.921Z,4.62
2023-02-17T03:47:32.169Z,5.14
2023-02-17T03:52:28.446Z,3.9
2023-02-17T03:57:24.717Z,4.19
2023-02-17T04:02:20.966Z,4.53
2023-02-17T04:07:17.195Z,4.05
2023-02-17T04:12:13.503Z,4.14
2023-02-17T04:17:09.728Z,5.09
2023-02-17T04:22:05.989Z,6.45
2023-02-17T04:27:02.264Z,5.44
2023-02-17T04:31:58.618Z,3.2
2023-02-17T04:36:54.758Z,4.95
2023-02-17T04:41:51.006Z,4.38
2023-02-17T04:46:47.252Z,3.77
2023-02-17T04:51:43.637Z,3.49
2023-02-17T04:56:39.802Z,3.2
2023-02-17T05:01:36.146Z,3.84
2023-02-17T05:06:32.301Z,3.28
2023-02-17T05:11:28.572Z,2.99
2023-02-17T05:16:24.864Z,2.79
2023-02-17T05:21:21.098Z,2.83
2023-02-17T05:26:17.378Z,4.3
2023-02-17T05:31:13.662Z,5.03
2023-02-17T05:36:10.854Z,3.33
2023-02-17T05:41:07.107Z,3.43
2023-02-17T05:46:04.673Z,3.51
2023-02-17T05:51:00.683Z,3.54
2023-02-17T05:55:56.902Z,3.17
2023-02-17T06:00:53.149Z,3.58
2023-02-17T06:05:49.438Z,4.26
2023-02-17T06:10:45.722Z,5.13
2023-02-17T06:15:41.921Z,4.7
2023-02-17T06:20:40.203Z,6.16
2023-02-17T06:25:36.460Z,5.37
2023-02-17T06:30:32.837Z,5.99
2023-02-17T06:35:28.953Z,6.65
2023-02-17T06:40:27.504Z,6.2
2023-02-17T06:45:24.566Z,5.48
2023-02-17T06:50:20.750Z,5.45
2023-02-17T06:55:17.019Z,6.4
2023-02-17T07:00:13.299Z,5.86
2023-02-17T07:05:09.552Z,6.2
2023-02-17T07:10:06.810Z,6.38
2023-02-17T07:15:04.064Z,6.9
2023-02-17T07:20:00.320Z,5.63
2023-02-17T07:24:56.571Z,5.64
2023-02-17T07:29:53.801Z,6.26
2023-02-17T07:34:50.062Z,6.47
2023-02-17T07:39:46.338Z,6.77
2023-02-17T07:44:42.584Z,6.89
2023-02-17T07:49:38.900Z,6.43
2023-02-17T07:54:34.096Z,6.79
2023-02-17T07:59:30.391Z,7.15
2023-02-17T08:04:27.666Z,7.32
2023-02-17T08:09:24.891Z,7.49
2023-02-17T08:14:21.151Z,7.86
2023-02-17T08:19:17.418Z,7.19
2023-02-17T08:24:13.641Z,7.59
2023-02-17T08:29:09.931Z,8.5
2023-02-17T08:34:07.198Z,9.37
2023-02-17T08:39:03.419Z,9.85
2023-02-17T08:44:01.745Z,9.54
2023-02-17T08:48:57.993Z,9.74
2023-02-17T08:53:55.222Z,9.84
2023-02-17T08:58:51.486Z,9.44
2023-02-17T09:03:48.767Z,9.64
2023-02-17T09:08:44.995Z,9.81
2023-02-17T09:13:41.239Z,9.83
2023-02-17T09:18:37.561Z,9.66
2023-02-17T09:23:33.780Z,10.04
2023-02-17T09:28:30.082Z,10.57
2023-02-17T09:33:27.199Z,10.76
2023-02-17T09:38:23.554Z,10.92
2023-02-17T09:43:22.821Z,11.56
2023-02-17T09:48:23.127Z,11.69
2023-02-17T09:53:27.287Z,12.08
2023-02-17T09:58:30.538Z,11.71
2023-02-17T10:03:29.790Z,11.48
2023-02-17T10:08:32.048Z,11.59
2023-02-17T10:13:30.288Z,12.03
2023-02-17T10:18:31.584Z,12.85
2023-02-17T10:23:31.776Z,13.23
2023-02-17T10:28:41.047Z,14.16
2023-02-17T10:33:47.240Z,13.71
2023-02-17T10:38:50.513Z,14.13
2023-02-17T10:43:51.759Z,14.15
2023-02-17T10:48:50.002Z,14.33
2023-02-17T10:53:48.249Z,14.43
2023-02-17T10:58:51.467Z,14.26
2023-02-17T11:03:55.762Z,14.5
2023-02-17T11:08:59.995Z,14.83
2023-02-17T11:14:03.233Z,14.69
2023-02-17T11:19:00.433Z,15.39
2023-02-17T11:23:58.695Z,15.85
2023-02-17T11:29:01.938Z,16.18
2023-02-17T11:38:56.546Z,16.74
2023-02-17T11:43:53.819Z,16.33
2023-02-17T11:49:07.023Z,17.8
2023-02-17T11:54:15.259Z,17.84
2023-02-17T11:59:26.482Z,17.33
2023-02-17T12:04:30.690Z,17.8
2023-02-17T12:09:39.916Z,17
2023-02-17T12:14:52.297Z,17.44
2023-02-17T12:20:02.435Z,18.36
2023-02-17T12:25:11.584Z,18.14
2023-02-17T12:30:22.995Z,18.12
2023-02-17T12:35:23.077Z,17.58
2023-02-17T12:40:30.323Z,18.57
2023-02-17T12:45:35.565Z,19.08
2023-02-17T12:50:36.773Z,18.2
2023-02-17T12:55:38.042Z,18.88
2023-02-17T13:00:42.301Z,19
2023-02-17T13:05:46.552Z,19.3
2023-02-17T13:10:56.788Z,19.33
2023-02-17T13:26:23.472Z,20.03
2023-02-17T13:31:20.895Z,20.7
2023-02-17T13:36:19.949Z,19.8
2023-02-17T13:41:17.175Z,20.39
2023-02-17T13:46:19.497Z,19.85
2023-02-17T13:51:21.678Z,20.52
2023-02-17T13:56:24.967Z,21.59
2023-02-17T14:01:24.308Z,21.19
2023-02-17T14:06:24.431Z,21.28
2023-02-17T14:11:21.701Z,21.08
2023-02-17T14:16:26.936Z,20.24
2023-02-17T14:21:29.180Z,19.84
2023-02-17T14:26:28.423Z,20.15
2023-02-17T14:31:24.816Z,21.39
2023-02-17T14:36:26.990Z,20.37
2023-02-17T14:41:23.163Z,20.92
2023-02-17T14:46:19.538Z,22.28
2023-02-17T14:51:16.740Z,22.65
2023-02-17T14:56:18.949Z,23
2023-02-17T15:01:16.294Z,23.61
2023-02-17T15:06:14.484Z,22.78
2023-02-17T15:11:14.754Z,22.65
2023-02-17T15:16:11.185Z,24.11
2023-02-17T15:21:13.240Z,24.04
2023-02-17T15:26:10.497Z,24.3
2023-02-17T15:31:06.790Z,23.37
2023-02-17T15:36:03.009Z,21.96
2023-02-17T15:40:59.278Z,22.33
2023-02-17T15:45:56.534Z,20.69
2023-02-17T15:50:53.777Z,19.12
2023-02-17T15:55:50.054Z,17.23
2023-02-17T16:00:49.309Z,15.85
2023-02-17T16:05:46.554Z,15.99
2023-02-17T16:10:43.784Z,15.58
2023-02-17T16:15:44.050Z,15.02
2023-02-17T16:20:46.282Z,14.85
2023-02-17T16:25:43.564Z,14.83
2023-02-17T16:30:47.788Z,14.23
2023-02-17T16:35:46.102Z,13.67
2023-02-17T16:40:46.294Z,13.24
2023-02-17T16:45:48.584Z,13.11
2023-02-17T16:50:49.805Z,13.22
2023-02-17T16:55:47.080Z,12.81
2023-02-17T17:00:45.320Z,12.74
2023-02-17T17:05:41.541Z,12.59
2023-02-17T17:10:38.821Z,12.81
2023-02-17T17:15:35.055Z,12.62
2023-02-17T17:20:32.362Z,12.89
2023-02-17T17:25:28.593Z,12.8
2023-02-17T17:30:24.970Z,13.15
2023-02-17T17:35:30.100Z,13.23
2023-02-17T17:40:31.357Z,13.08
2023-02-17T17:45:27.606Z,13.09
2023-02-17T17:50:23.838Z,13.09
2023-02-17T17:55:25.133Z,12.79
2023-02-17T18:00:25.345Z,12.57
2023-02-17T18:05:26.594Z,12.42
2023-02-17T18:10:31.894Z,12.37
2023-02-17T18:15:33.132Z,12.23
2023-02-17T18:25:42.610Z,11.73
2023-02-17T18:30:44.930Z,11.86
2023-02-17T18:35:46.042Z,12.1
2023-02-17T18:40:56.291Z,12.59
2023-02-17T18:46:02.574Z,12.47
2023-02-17T18:51:03.147Z,12.42
2023-02-17T18:56:11.976Z,12.09
2023-02-17T19:01:16.549Z,12.21
2023-02-17T19:06:24.528Z,12.07
2023-02-17T19:11:28.028Z,11.86
2023-02-17T19:16:24.976Z,12.01
2023-02-17T19:21:30.230Z,11.53
2023-02-17T19:31:38.848Z,11.68
2023-02-17T19:36:38.950Z,11.33
2023-02-17T19:41:45.604Z,11.39
2023-02-17T19:46:48.474Z,10.99
2023-02-17T19:51:48.672Z,10.51
2023-02-17T19:56:55.699Z,10.96
2023-02-17T20:01:59.599Z,10.73
2023-02-17T20:07:02.398Z,10.44
2023-02-17T20:12:03.610Z,10.23
2023-02-17T20:17:04.857Z,11.1
2023-02-17T20:22:03.136Z,10.91
2023-02-17T20:32:14.101Z,10.92
2023-02-17T20:37:15.867Z,10.87
2023-02-17T20:42:20.069Z,10.97
2023-02-17T20:47:20.309Z,11.24
2023-02-17T20:52:25.763Z,10.49
2023-02-17T20:57:27.798Z,10.49
2023-02-17T21:02:24.065Z,9.88
2023-02-17T21:07:25.777Z,10.07
2023-02-17T21:12:29.562Z,9.79
2023-02-17T21:17:30.231Z,9.56
2023-02-17T21:22:31.098Z,9.68
2023-02-17T21:27:32.299Z,9.61
2023-02-17T21:32:32.972Z,9.86
2023-02-17T21:37:36.814Z,10.05
2023-02-17T21:42:38.057Z,10.07
2023-02-17T21:47:38.290Z,10.1
2023-02-17T21:52:38.529Z,9.89
2023-02-17T21:57:38.802Z,9.35
2023-02-17T22:02:39.089Z,9.14
2023-02-17T22:07:39.267Z,9.39
2023-02-17T22:12:39.528Z,9.36
2023-02-17T22:17:39.791Z,9.03
2023-02-17T22:22:40.095Z,8.97
2023-02-17T22:27:40.281Z,9.18
2023-02-17T22:32:40.537Z,9.45
2023-02-17T22:37:40.770Z,9.34
2023-02-17T22:42:41.051Z,9.35
2023-02-17T22:47:41.330Z,8.96
2023-02-17T22:52:41.532Z,9.39
2023-02-17T22:57:41.781Z,9.87
2023-02-17T23:02:42.052Z,12.36
2023-02-17T23:07:42.277Z,11.69
2023-02-17T23:12:42.544Z,10.73
2023-02-17T23:22:52.998Z,10.59
2023-02-17T23:27:53.277Z,10.2
2023-02-17T23:32:49.521Z,9.96
2023-02-17T23:37:45.789Z,9.87
2023-02-17T23:42:41.023Z,10.43
2023-02-17T23:47:37.315Z,10.43
2023-02-17T23:52:33.605Z,10.33
2023-02-17T23:57:29.867Z,9.96
